createdAt,value
2019-03-25T00:00:58.792Z,65.10
2019-03-25T00:03:30.725Z,65.00
2019-03-25T00:06:03.269Z,65.40
2019-03-25T00:08:37.253Z,65.00
2019-03-25T00:11:09.811Z,64.90
2019-03-25T00:13:42.513Z,65.20
2019-03-25T00:16:14.598Z,65.00
2019-03-25T00:18:46.555Z,64.70
2019-03-25T00:21:19.090Z,64.90
2019-03-25T00:23:51.913Z,64.90
2019-03-25T00:26:24.056Z,64.80
2019-03-25T00:28:56.213Z,64.80
2019-03-25T00:31:28.277Z,65.00
2019-03-25T00:34:00.463Z,64.10
2019-03-25T00:36:33.459Z,64.20
2019-03-25T00:39:07.356Z,64.20
2019-03-25T00:41:39.662Z,63.80
2019-03-25T00:44:11.998Z,64.00
2019-03-25T00:46:44.163Z,64.00
2019-03-25T00:49:16.294Z,64.40
2019-03-25T00:51:49.136Z,63.60
2019-03-25T00:54:21.663Z,63.60
2019-03-25T00:56:53.891Z,63.80
2019-03-25T00:59:26.224Z,63.50
2019-03-25T01:01:58.353Z,63.70
2019-03-25T01:04:30.534Z,63.30
2019-03-25T01:07:03.797Z,63.20
2019-03-25T01:09:35.804Z,63.10
2019-03-25T01:12:08.662Z,62.60
2019-03-25T01:14:41.032Z,62.40
2019-03-25T01:17:13.389Z,62.30
2019-03-25T01:19:45.453Z,62.10
2019-03-25T01:22:17.616Z,62.00
2019-03-25T01:25:00.920Z,62.50
2019-03-25T01:27:24.533Z,61.50
2019-03-25T01:29:56.730Z,61.50
2019-03-25T01:32:28.930Z,61.30
2019-03-25T01:35:01.030Z,61.40
2019-03-25T01:37:33.284Z,61.20
2019-03-25T01:40:07.449Z,60.70
2019-03-25T01:42:39.908Z,60.60
2019-03-25T01:45:12.796Z,60.40
2019-03-25T01:47:44.854Z,60.10
2019-03-25T01:50:17.531Z,59.80
2019-03-25T01:52:49.742Z,59.90
2019-03-25T01:55:22.287Z,59.70
2019-03-25T01:57:54.882Z,59.30
2019-03-25T02:00:27.545Z,59.40
2019-03-25T02:02:59.928Z,59.20
2019-03-25T02:05:32.282Z,59.80
2019-03-25T02:08:04.458Z,59.10
2019-03-25T02:10:37.881Z,58.80
2019-03-25T02:13:12.589Z,58.80
2019-03-25T02:15:44.814Z,58.70
2019-03-25T02:18:17.079Z,58.30
2019-03-25T02:20:49.279Z,58.10
2019-03-25T02:23:22.404Z,58.20
2019-03-25T02:25:58.985Z,57.70
2019-03-25T02:28:31.057Z,57.50
2019-03-25T02:31:03.284Z,57.60
2019-03-25T02:33:35.706Z,57.00
2019-03-25T02:36:08.488Z,56.90
2019-03-25T02:38:59.760Z,56.80
2019-03-25T02:41:32.003Z,56.70
2019-03-25T02:44:03.918Z,56.50
2019-03-25T02:46:36.450Z,56.40
2019-03-25T02:49:08.683Z,56.30
2019-03-25T02:51:40.709Z,56.20
2019-03-25T02:54:12.793Z,56.00
2019-03-25T02:56:44.776Z,55.60
2019-03-25T02:59:17.225Z,55.30
2019-03-25T03:01:51.781Z,55.30
2019-03-25T03:04:23.835Z,55.30
2019-03-25T03:06:56.763Z,54.60
2019-03-25T03:09:28.992Z,54.80
2019-03-25T03:12:02.140Z,53.70
2019-03-25T03:14:34.188Z,53.90
2019-03-25T03:17:06.471Z,53.40
2019-03-25T03:19:38.562Z,53.80
2019-03-25T03:22:36.224Z,54.00
2019-03-25T03:25:12.886Z,53.90
2019-03-25T03:27:45.874Z,53.30
2019-03-25T03:30:18.326Z,53.00
2019-03-25T03:32:50.771Z,53.20
2019-03-25T03:35:23.689Z,52.70
2019-03-25T03:37:56.233Z,52.70
2019-03-25T03:40:28.193Z,52.90
2019-03-25T03:43:00.762Z,53.60
2019-03-25T03:45:33.514Z,53.10
2019-03-25T03:48:06.132Z,52.80
2019-03-25T03:50:38.403Z,52.00
2019-03-25T03:53:11.094Z,52.20
2019-03-25T03:55:43.115Z,51.80
2019-03-25T03:58:16.582Z,52.10
2019-03-25T04:00:49.000Z,51.70
2019-03-25T04:03:21.183Z,51.70
2019-03-25T04:05:53.098Z,51.80
2019-03-25T04:08:25.669Z,51.30
2019-03-25T04:10:58.028Z,51.10
2019-03-25T04:13:31.010Z,51.20
2019-03-25T04:16:03.817Z,51.30
2019-03-25T04:18:44.913Z,51.40
2019-03-25T04:21:29.056Z,50.10
2019-03-25T04:24:02.822Z,50.10
2019-03-25T04:26:47.729Z,50.30
2019-03-25T04:29:19.802Z,50.60
2019-03-25T04:31:51.539Z,50.00
2019-03-25T04:34:42.544Z,49.70
2019-03-25T04:37:14.898Z,49.50
2019-03-25T04:39:48.322Z,49.10
2019-03-25T04:42:20.455Z,49.20
2019-03-25T04:44:52.844Z,48.80
2019-03-25T04:47:25.523Z,49.00
2019-03-25T04:49:57.657Z,48.50
2019-03-25T04:52:29.850Z,49.30
2019-03-25T04:55:02.151Z,48.60
2019-03-25T04:57:34.416Z,48.60
2019-03-25T05:00:08.627Z,48.00
2019-03-25T05:02:40.884Z,47.90
2019-03-25T05:05:13.262Z,47.60
2019-03-25T05:07:45.286Z,47.20
2019-03-25T05:10:17.974Z,47.20
2019-03-25T05:12:50.029Z,46.10
2019-03-25T05:15:23.471Z,46.20
2019-03-25T05:17:55.401Z,46.30
2019-03-25T05:20:27.772Z,45.70
2019-03-25T05:22:59.503Z,45.50
2019-03-25T05:25:32.158Z,45.70
2019-03-25T05:28:04.660Z,45.50
2019-03-25T05:30:37.536Z,45.60
2019-03-25T05:33:10.918Z,45.10
2019-03-25T05:35:46.768Z,45.00
2019-03-25T05:38:30.870Z,44.70
2019-03-25T05:41:03.279Z,44.30
2019-03-25T05:43:35.148Z,44.50
2019-03-25T05:46:07.322Z,44.30
2019-03-25T05:48:40.151Z,44.10
2019-03-25T05:51:12.332Z,43.90
2019-03-25T05:53:44.373Z,43.20
2019-03-25T05:56:16.430Z,43.40
2019-03-25T05:58:48.527Z,43.30
2019-03-25T06:01:21.291Z,42.70
2019-03-25T06:03:54.194Z,42.80
2019-03-25T06:06:25.915Z,43.20
2019-03-25T06:08:57.852Z,43.10
2019-03-25T06:11:30.492Z,42.80
2019-03-25T06:14:02.435Z,42.30
2019-03-25T06:16:35.515Z,41.70
2019-03-25T06:19:26.639Z,41.40
2019-03-25T06:21:59.259Z,41.80
2019-03-25T06:24:31.421Z,41.60
2019-03-25T06:27:13.648Z,41.20
2019-03-25T06:29:37.175Z,40.70
2019-03-25T06:32:08.727Z,41.00
2019-03-25T06:34:40.886Z,40.90
2019-03-25T06:37:13.574Z,40.90
2019-03-25T06:39:45.826Z,40.90
2019-03-25T06:42:17.928Z,40.40
2019-03-25T06:44:50.292Z,40.80
2019-03-25T06:47:22.331Z,40.30
2019-03-25T06:49:57.576Z,40.70
2019-03-25T06:52:29.952Z,40.60
2019-03-25T06:55:02.192Z,40.60
2019-03-25T06:57:35.108Z,40.30
2019-03-25T07:00:18.883Z,41.60
2019-03-25T07:02:51.626Z,40.90
2019-03-25T07:05:33.697Z,40.80
2019-03-25T07:08:06.419Z,40.30
2019-03-25T07:10:39.776Z,40.80
2019-03-25T07:13:17.698Z,41.10
2019-03-25T07:15:50.200Z,41.60
2019-03-25T07:18:23.678Z,41.40
2019-03-25T07:20:56.056Z,40.90
2019-03-25T07:23:28.207Z,40.80
2019-03-25T07:26:00.557Z,40.80
2019-03-25T07:28:32.834Z,40.60
2019-03-25T07:31:04.848Z,40.90
2019-03-25T07:33:37.048Z,41.00
2019-03-25T07:36:09.158Z,41.10
2019-03-25T07:38:41.216Z,40.80
2019-03-25T07:41:13.785Z,41.00
2019-03-25T07:43:45.915Z,40.80
2019-03-25T07:46:18.122Z,40.70
2019-03-25T07:48:50.177Z,40.80
2019-03-25T07:51:22.158Z,41.10
2019-03-25T07:53:55.429Z,41.40
2019-03-25T07:56:27.878Z,41.30
2019-03-25T07:59:00.184Z,42.00
2019-03-25T08:01:33.185Z,41.70
2019-03-25T08:04:05.311Z,41.70
2019-03-25T08:06:37.659Z,41.50
2019-03-25T08:09:29.300Z,41.70
2019-03-25T08:12:01.329Z,41.70
2019-03-25T08:14:33.234Z,40.80
2019-03-25T08:17:06.018Z,40.90
2019-03-25T08:19:41.700Z,40.90
2019-03-25T08:22:14.130Z,41.40
2019-03-25T08:25:06.047Z,40.90
2019-03-25T08:27:39.257Z,40.50
2019-03-25T08:30:12.513Z,40.90
2019-03-25T08:32:45.231Z,40.40
2019-03-25T08:35:17.507Z,40.60
2019-03-25T08:37:51.190Z,39.90
2019-03-25T08:40:23.293Z,40.20
2019-03-25T08:42:55.127Z,40.40
2019-03-25T08:45:28.441Z,40.00
2019-03-25T08:48:00.562Z,39.90
2019-03-25T08:50:32.455Z,41.00
2019-03-25T08:53:04.871Z,39.90
2019-03-25T08:55:36.890Z,41.20
2019-03-25T08:58:12.269Z,40.40
2019-03-25T09:00:43.283Z,39.70
2019-03-25T09:03:15.370Z,39.70
2019-03-25T09:05:47.631Z,39.30
2019-03-25T09:08:38.897Z,39.80
2019-03-25T09:11:12.499Z,39.30
2019-03-25T09:13:45.650Z,39.70
2019-03-25T09:16:17.946Z,39.30
2019-03-25T09:18:51.273Z,39.30
2019-03-25T09:21:24.811Z,39.90
2019-03-25T09:24:05.733Z,40.60
2019-03-25T09:26:38.282Z,39.80
2019-03-25T09:29:10.420Z,39.10
2019-03-25T09:31:42.499Z,39.70
2019-03-25T09:34:15.916Z,39.70
2019-03-25T09:36:48.016Z,39.60
2019-03-25T09:39:19.933Z,39.60
2019-03-25T09:41:52.364Z,39.40
2019-03-25T09:44:24.628Z,39.90
2019-03-25T09:46:56.564Z,40.10
2019-03-25T09:49:29.384Z,39.80
2019-03-25T09:52:01.674Z,39.50
2019-03-25T09:54:34.043Z,39.80
2019-03-25T09:57:06.898Z,40.20
2019-03-25T09:59:39.000Z,40.30
2019-03-25T10:02:30.358Z,40.10
2019-03-25T10:05:02.930Z,40.30
2019-03-25T10:07:35.676Z,40.70
2019-03-25T10:10:09.990Z,40.80
2019-03-25T10:12:42.313Z,40.90
2019-03-25T10:15:14.671Z,40.60
2019-03-25T10:17:48.288Z,40.50
2019-03-25T10:20:21.208Z,40.10
2019-03-25T10:22:54.016Z,40.90
2019-03-25T10:25:26.139Z,40.90
2019-03-25T10:27:58.990Z,41.10
2019-03-25T10:30:31.240Z,41.40
2019-03-25T10:33:03.581Z,41.10
2019-03-25T10:35:36.565Z,41.40
2019-03-25T10:38:19.180Z,41.70
2019-03-25T10:41:02.963Z,41.90
2019-03-25T10:43:35.225Z,42.00
2019-03-25T10:46:09.726Z,42.20
2019-03-25T10:48:41.789Z,42.10
2019-03-25T10:51:14.026Z,42.20
2019-03-25T10:53:46.371Z,42.50
2019-03-25T10:56:18.421Z,42.80
2019-03-25T10:58:57.971Z,42.70
2019-03-25T11:01:24.494Z,43.10
2019-03-25T11:03:56.728Z,43.30
2019-03-25T11:06:28.810Z,43.20
2019-03-25T11:09:01.186Z,43.80
2019-03-25T11:11:34.260Z,43.30
2019-03-25T11:14:26.729Z,43.80
2019-03-25T11:16:58.793Z,44.40
2019-03-25T11:19:32.014Z,44.60
2019-03-25T11:22:04.059Z,44.70
2019-03-25T11:24:37.245Z,44.90
2019-03-25T11:27:09.716Z,44.90
2019-03-25T11:29:49.216Z,45.10
2019-03-25T11:32:21.934Z,45.20
2019-03-25T11:34:54.152Z,45.40
2019-03-25T11:37:35.830Z,45.50
2019-03-25T11:40:29.558Z,45.80
2019-03-25T11:43:01.980Z,46.00
2019-03-25T11:45:34.409Z,45.90
2019-03-25T11:48:26.965Z,45.60
2019-03-25T11:50:59.417Z,45.80
2019-03-25T11:53:31.643Z,45.90
2019-03-25T11:56:04.318Z,46.50
2019-03-25T11:58:36.593Z,46.60
2019-03-25T12:01:09.896Z,46.70
2019-03-25T12:03:42.539Z,49.20
2019-03-25T12:06:14.978Z,48.50
2019-03-25T12:09:08.911Z,49.40
2019-03-25T12:11:41.071Z,49.00
2019-03-25T12:14:13.209Z,47.60
2019-03-25T12:17:05.537Z,47.40
2019-03-25T12:19:38.361Z,47.40
2019-03-25T12:22:12.801Z,48.40
2019-03-25T12:24:44.310Z,50.20
2019-03-25T12:27:17.124Z,49.00
2019-03-25T12:29:49.237Z,48.20
2019-03-25T12:32:21.374Z,47.60
2019-03-25T12:35:14.130Z,47.60
2019-03-25T12:37:46.900Z,49.00
2019-03-25T12:40:19.364Z,47.70
2019-03-25T12:42:51.473Z,47.50
2019-03-25T12:45:24.271Z,47.70
2019-03-25T12:47:56.488Z,47.70
2019-03-25T12:50:28.733Z,48.20
2019-03-25T12:53:00.918Z,48.50
2019-03-25T12:55:33.302Z,48.40
2019-03-25T12:58:07.421Z,48.30
2019-03-25T13:00:42.740Z,50.30
2019-03-25T13:03:15.688Z,49.30
2019-03-25T13:05:47.818Z,48.90
2019-03-25T13:08:19.951Z,48.90
2019-03-25T13:10:53.176Z,49.50
2019-03-25T13:13:25.141Z,48.70
2019-03-25T13:16:01.049Z,49.70
2019-03-25T13:18:33.441Z,49.00
2019-03-25T13:21:06.266Z,49.40
2019-03-25T13:23:38.085Z,49.80
2019-03-25T13:26:10.295Z,49.90
2019-03-25T13:28:47.991Z,50.00
2019-03-25T13:31:20.254Z,50.20
2019-03-25T13:33:53.664Z,50.30
2019-03-25T13:36:26.036Z,51.20
2019-03-25T13:38:58.104Z,50.50
2019-03-25T13:41:30.074Z,50.80
2019-03-25T13:44:02.452Z,50.90
2019-03-25T13:46:35.131Z,51.60
2019-03-25T13:49:07.380Z,50.90
2019-03-25T13:51:40.192Z,51.30
2019-03-25T13:54:12.209Z,51.00
2019-03-25T13:56:44.544Z,51.10
2019-03-25T13:59:16.585Z,51.50
2019-03-25T14:01:48.538Z,51.50
2019-03-25T14:04:21.539Z,51.90
2019-03-25T14:06:53.736Z,51.60
2019-03-25T14:09:25.795Z,51.80
2019-03-25T14:12:18.331Z,51.80
2019-03-25T14:14:50.577Z,51.90
2019-03-25T14:17:22.625Z,52.10
2019-03-25T14:19:54.994Z,52.30
2019-03-25T14:22:27.208Z,52.10
2019-03-25T14:24:58.936Z,52.30
2019-03-25T14:27:31.474Z,52.50
2019-03-25T14:30:13.976Z,52.50
2019-03-25T14:32:38.315Z,52.40
2019-03-25T14:35:12.029Z,52.80
2019-03-25T14:37:44.444Z,52.90
2019-03-25T14:40:17.099Z,53.20
2019-03-25T14:42:50.001Z,52.70
2019-03-25T14:45:26.754Z,52.20
2019-03-25T14:47:56.336Z,52.80
2019-03-25T14:50:28.591Z,53.20
2019-03-25T14:53:00.706Z,53.10
2019-03-25T14:55:33.284Z,53.70
2019-03-25T14:58:05.452Z,53.30
2019-03-25T15:00:37.676Z,53.90
2019-03-25T15:03:10.104Z,53.70
2019-03-25T15:06:02.605Z,53.50
2019-03-25T15:08:35.661Z,54.00
2019-03-25T15:11:08.116Z,53.70
2019-03-25T15:13:40.703Z,53.50
2019-03-25T15:16:12.828Z,54.30
2019-03-25T15:18:45.223Z,53.70
2019-03-25T15:21:18.666Z,53.50
2019-03-25T15:23:50.996Z,54.30
2019-03-25T15:26:23.827Z,53.70
2019-03-25T15:28:55.769Z,54.20
2019-03-25T15:31:48.885Z,54.20
2019-03-25T15:34:21.535Z,53.70
2019-03-25T15:36:53.555Z,54.10
2019-03-25T15:39:25.787Z,54.10
2019-03-25T15:41:58.492Z,53.60
2019-03-25T15:44:30.586Z,53.80
2019-03-25T15:47:03.270Z,53.80
2019-03-25T15:49:35.402Z,53.70
2019-03-25T15:52:07.576Z,54.80
2019-03-25T15:54:39.811Z,54.10
2019-03-25T15:57:11.833Z,54.00
2019-03-25T15:59:44.529Z,54.20
2019-03-25T16:02:16.607Z,54.60
2019-03-25T16:04:48.420Z,54.70
2019-03-25T16:07:20.475Z,54.60
2019-03-25T16:09:52.777Z,54.40
2019-03-25T16:12:25.040Z,54.80
2019-03-25T16:14:57.334Z,54.40
2019-03-25T16:17:29.401Z,54.80
2019-03-25T16:20:01.663Z,54.50
2019-03-25T16:22:33.801Z,55.00
2019-03-25T16:25:09.036Z,54.70
2019-03-25T16:27:41.073Z,54.60
2019-03-25T16:30:13.830Z,54.90
2019-03-25T16:32:46.602Z,55.30
2019-03-25T16:35:18.979Z,55.50
2019-03-25T16:37:51.680Z,55.10
2019-03-25T16:40:24.067Z,55.20
2019-03-25T16:42:57.196Z,55.50
2019-03-25T16:45:29.248Z,55.10
2019-03-25T16:48:01.590Z,55.10
2019-03-25T16:50:33.753Z,55.60
2019-03-25T16:53:05.810Z,55.60
2019-03-25T16:55:38.277Z,55.70
2019-03-25T16:58:10.393Z,55.90
2019-03-25T17:00:43.331Z,55.50
2019-03-25T17:03:15.749Z,55.70
2019-03-25T17:05:47.758Z,55.70
2019-03-25T17:08:22.352Z,56.00
2019-03-25T17:10:56.641Z,55.80
2019-03-25T17:13:28.860Z,55.80
2019-03-25T17:16:01.786Z,55.80
2019-03-25T17:18:34.263Z,56.20
2019-03-25T17:21:06.914Z,56.10
2019-03-25T17:23:39.231Z,55.80
2019-03-25T17:26:11.533Z,56.40
2019-03-25T17:28:43.699Z,56.30
2019-03-25T17:31:20.824Z,56.00
2019-03-25T17:33:49.944Z,56.10
2019-03-25T17:36:22.486Z,55.90
2019-03-25T17:38:54.918Z,56.20
2019-03-25T17:41:26.998Z,56.00
2019-03-25T17:43:59.151Z,56.00
2019-03-25T17:46:31.282Z,56.30
2019-03-25T17:49:03.362Z,56.10
2019-03-25T17:51:35.946Z,56.30
2019-03-25T17:54:08.342Z,56.30
2019-03-25T17:56:40.602Z,56.10
2019-03-25T17:59:12.663Z,56.10
2019-03-25T18:01:45.396Z,56.50
2019-03-25T18:04:17.536Z,56.40
2019-03-25T18:06:49.668Z,56.40
2019-03-25T18:09:21.979Z,56.60
2019-03-25T18:11:54.204Z,56.70
2019-03-25T18:14:26.144Z,56.70
2019-03-25T18:16:58.656Z,57.00
2019-03-25T18:19:30.933Z,57.10
2019-03-25T18:22:02.879Z,56.80
2019-03-25T18:24:34.971Z,57.00
2019-03-25T18:27:06.993Z,56.60
2019-03-25T18:29:39.201Z,56.80
2019-03-25T18:32:12.494Z,56.70
2019-03-25T18:34:45.048Z,56.80
2019-03-25T18:37:19.979Z,57.00
2019-03-25T18:39:52.262Z,57.00
2019-03-25T18:42:24.418Z,56.70
2019-03-25T18:44:56.820Z,56.70
2019-03-25T18:47:29.036Z,56.70
2019-03-25T18:50:01.376Z,56.70
2019-03-25T18:52:33.504Z,57.20
2019-03-25T18:55:07.135Z,57.40
2019-03-25T18:57:39.089Z,57.30
2019-03-25T19:00:14.348Z,57.10
2019-03-25T19:02:46.485Z,56.90
2019-03-25T19:05:18.558Z,57.50
2019-03-25T19:07:51.407Z,57.00
2019-03-25T19:10:27.330Z,57.00
2019-03-25T19:13:00.298Z,57.50
2019-03-25T19:15:32.667Z,57.70
2019-03-25T19:18:04.496Z,57.50
2019-03-25T19:20:36.840Z,57.40
2019-03-25T19:23:08.967Z,57.90
2019-03-25T19:25:41.040Z,57.70
2019-03-25T19:28:13.518Z,58.00
2019-03-25T19:30:45.429Z,57.90
2019-03-25T19:33:17.481Z,58.20
2019-03-25T19:35:49.724Z,57.90
2019-03-25T19:38:23.005Z,58.20
2019-03-25T19:40:56.761Z,58.20
2019-03-25T19:43:28.750Z,58.40
2019-03-25T19:46:01.046Z,58.40
2019-03-25T19:48:33.595Z,58.00
2019-03-25T19:51:07.465Z,58.10
2019-03-25T19:53:40.132Z,58.30
2019-03-25T19:56:12.208Z,58.60
2019-03-25T19:58:44.717Z,58.60
2019-03-25T20:01:19.784Z,58.40
2019-03-25T20:03:52.239Z,58.40
2019-03-25T20:06:26.387Z,58.40
2019-03-25T20:08:58.715Z,58.50
2019-03-25T20:11:33.986Z,58.80
2019-03-25T20:14:06.309Z,59.00
2019-03-25T20:16:38.886Z,58.90
2019-03-25T20:19:11.538Z,59.10
2019-03-25T20:21:48.360Z,59.00
2019-03-25T20:24:20.516Z,59.00
2019-03-25T20:26:52.453Z,59.20
2019-03-25T20:29:24.981Z,59.20
2019-03-25T20:31:56.950Z,59.30
2019-03-25T20:34:29.178Z,59.30
2019-03-25T20:37:01.676Z,59.70
2019-03-25T20:39:34.162Z,60.30
2019-03-25T20:42:08.606Z,59.90
2019-03-25T20:44:43.437Z,59.80
2019-03-25T20:47:15.756Z,59.70
2019-03-25T20:49:47.918Z,60.10
2019-03-25T20:52:20.526Z,59.70
2019-03-25T20:54:52.576Z,60.00
2019-03-25T20:57:24.626Z,59.90
2019-03-25T20:59:57.248Z,60.10
2019-03-25T21:02:29.382Z,59.90
2019-03-25T21:05:01.487Z,59.90
2019-03-25T21:07:34.574Z,60.10
2019-03-25T21:10:09.116Z,60.20
2019-03-25T21:12:41.890Z,59.90
2019-03-25T21:15:14.456Z,60.50
2019-03-25T21:17:46.437Z,60.60
2019-03-25T21:20:18.732Z,61.00
2019-03-25T21:22:51.098Z,61.10
2019-03-25T21:25:23.510Z,61.20
2019-03-25T21:27:55.764Z,61.50
2019-03-25T21:30:28.421Z,61.40
2019-03-25T21:33:00.557Z,61.40
2019-03-25T21:35:33.036Z,62.60
2019-03-25T21:38:05.402Z,61.50
2019-03-25T21:40:38.045Z,61.50
2019-03-25T21:43:11.455Z,61.80
2019-03-25T21:45:44.039Z,61.60
2019-03-25T21:48:15.967Z,62.10
2019-03-25T21:50:48.433Z,61.90
2019-03-25T21:53:20.413Z,62.50
2019-03-25T21:55:52.522Z,62.00
2019-03-25T21:58:25.452Z,61.90
2019-03-25T22:00:57.453Z,62.30
2019-03-25T22:03:29.346Z,62.40
2019-03-25T22:06:01.204Z,62.70
2019-03-25T22:08:33.091Z,62.80
2019-03-25T22:11:05.546Z,63.00
2019-03-25T22:13:38.334Z,63.30
2019-03-25T22:16:10.342Z,63.80
2019-03-25T22:18:55.982Z,63.60
2019-03-25T22:21:27.950Z,63.90
2019-03-25T22:24:00.156Z,63.40
2019-03-25T22:26:33.109Z,63.60
2019-03-25T22:29:08.908Z,64.30
2019-03-25T22:31:41.078Z,63.90
2019-03-25T22:34:13.178Z,64.20
2019-03-25T22:36:45.210Z,64.50
2019-03-25T22:39:18.036Z,64.20
2019-03-25T22:41:50.193Z,64.10
2019-03-25T22:44:22.756Z,64.10
2019-03-25T22:46:54.695Z,64.30
2019-03-25T22:49:29.102Z,64.50
2019-03-25T22:52:00.956Z,64.30
2019-03-25T22:54:33.180Z,64.40
2019-03-25T22:57:05.211Z,64.40
2019-03-25T22:59:37.421Z,64.40
2019-03-25T23:02:10.466Z,64.40
2019-03-25T23:04:42.427Z,64.60
2019-03-25T23:07:14.571Z,64.80
2019-03-25T23:09:46.683Z,65.00
2019-03-25T23:12:18.866Z,65.00
2019-03-25T23:14:52.108Z,65.20
2019-03-25T23:17:25.074Z,65.00
2019-03-25T23:19:57.308Z,65.50
2019-03-25T23:22:29.420Z,65.10
2019-03-25T23:25:01.905Z,65.20
2019-03-25T23:27:34.282Z,65.20
2019-03-25T23:30:08.393Z,65.30
2019-03-25T23:32:40.316Z,65.40
2019-03-25T23:35:12.527Z,65.50
2019-03-25T23:37:45.340Z,65.70
2019-03-25T23:40:17.734Z,65.90
2019-03-25T23:42:49.863Z,65.70
2019-03-25T23:45:23.348Z,65.80
2019-03-25T23:48:02.590Z,66.30
2019-03-25T23:50:34.940Z,66.10
2019-03-25T23:53:07.156Z,66.30
2019-03-25T23:55:39.094Z,66.00
2019-03-25T23:58:11.492Z,66.40
